createdAt,value
2022-12-19T00:01:28.097Z,41.00
2022-12-19T00:04:08.259Z,43.00
2022-12-19T00:06:37.986Z,42.90
2022-12-19T00:09:12.524Z,43.90
2022-12-19T00:11:40.392Z,40.40
2022-12-19T00:14:11.171Z,42.30
2022-12-19T00:16:38.420Z,46.40
2022-12-19T00:19:06.770Z,43.60
2022-12-19T00:21:35.069Z,40.50
2022-12-19T00:24:15.362Z,42.50
2022-12-19T00:26:49.714Z,45.30
2022-12-19T00:29:17.468Z,42.30
2022-12-19T00:31:45.021Z,43.00
2022-12-19T00:34:15.250Z,42.90
2022-12-19T00:36:42.873Z,42.90
2022-12-19T00:39:11.223Z,42.50
2022-12-19T00:41:42.033Z,46.60
2022-12-19T00:44:14.182Z,43.90
2022-12-19T00:46:41.890Z,44.10
2022-12-19T00:49:08.993Z,41.80
2022-12-19T00:51:37.195Z,42.10
2022-12-19T00:54:06.617Z,43.60
2022-12-19T00:56:37.223Z,44.10
2022-12-19T00:59:07.306Z,43.60
2022-12-19T01:01:38.905Z,42.60
2022-12-19T01:07:02.055Z,48.00
2022-12-19T01:09:35.253Z,45.70
2022-12-19T01:12:24.512Z,43.00
2022-12-19T01:14:55.185Z,40.60
2022-12-19T01:17:34.328Z,36.70
2022-12-19T01:20:14.909Z,40.20
2022-12-19T01:22:42.771Z,41.10
2022-12-19T01:25:10.400Z,44.40
2022-12-19T01:27:39.729Z,42.10
2022-12-19T01:30:07.913Z,43.50
2022-12-19T01:32:35.935Z,39.40
2022-12-19T01:35:04.111Z,40.30
2022-12-19T01:37:31.488Z,44.80
2022-12-19T01:39:58.853Z,42.50
2022-12-19T01:42:26.332Z,39.20
2022-12-19T01:45:15.543Z,38.50
2022-12-19T01:48:04.861Z,40.70
2022-12-19T01:51:01.259Z,35.30
2022-12-19T01:53:49.440Z,34.70
2022-12-19T01:56:27.690Z,38.40
2022-12-19T01:59:06.570Z,37.20
2022-12-19T02:01:44.581Z,41.60
2022-12-19T02:04:26.042Z,39.40
2022-12-19T02:06:58.093Z,38.50
2022-12-19T02:09:25.509Z,38.70
2022-12-19T02:11:53.556Z,38.50
2022-12-19T02:14:21.557Z,39.40
2022-12-19T02:17:06.727Z,37.70
2022-12-19T02:19:52.903Z,37.80
2022-12-19T02:22:45.386Z,40.90
2022-12-19T02:25:51.260Z,41.00
2022-12-19T02:28:36.689Z,39.00
2022-12-19T02:31:17.529Z,38.70
2022-12-19T02:34:25.231Z,35.50
2022-12-19T02:37:34.406Z,37.40
2022-12-19T02:40:13.449Z,37.30
2022-12-19T02:42:46.131Z,32.10
2022-12-19T02:45:20.752Z,32.50
2022-12-19T02:48:00.788Z,38.80
2022-12-19T02:50:45.803Z,39.60
2022-12-19T02:53:18.758Z,38.80
2022-12-19T02:56:22.067Z,35.80
2022-12-19T02:59:13.882Z,38.50
2022-12-19T03:02:07.068Z,36.10
2022-12-19T03:04:54.154Z,36.00
2022-12-19T03:07:21.570Z,31.80
2022-12-19T03:09:55.625Z,30.40
2022-12-19T03:12:38.692Z,33.70
2022-12-19T03:15:07.705Z,34.30
2022-12-19T03:17:37.500Z,31.50
2022-12-19T03:20:15.692Z,32.30
2022-12-19T03:22:43.261Z,32.40
2022-12-19T03:25:10.859Z,31.30
2022-12-19T03:27:39.570Z,33.10
2022-12-19T03:30:12.990Z,31.90
2022-12-19T03:32:43.236Z,33.40
2022-12-19T03:35:18.374Z,32.00
2022-12-19T03:37:49.596Z,34.00
2022-12-19T03:40:23.373Z,30.40
2022-12-19T03:43:11.925Z,33.60
2022-12-19T03:45:39.647Z,33.50
2022-12-19T03:48:11.243Z,32.80
2022-12-19T03:51:23.725Z,29.40
2022-12-19T03:54:06.008Z,31.00
2022-12-19T03:56:56.664Z,30.50
2022-12-19T03:59:56.421Z,32.60
2022-12-19T04:02:24.883Z,33.30
2022-12-19T04:04:58.742Z,31.90
2022-12-19T04:07:27.122Z,33.50
2022-12-19T04:09:57.631Z,30.70
2022-12-19T04:12:31.406Z,29.80
2022-12-19T04:14:58.819Z,29.90
2022-12-19T04:17:53.912Z,29.90
2022-12-19T04:20:25.360Z,26.00
2022-12-19T04:23:20.178Z,29.50
2022-12-19T04:25:51.129Z,26.50
2022-12-19T04:28:27.415Z,26.40
2022-12-19T04:33:22.307Z,25.30
2022-12-19T04:35:49.979Z,24.30
2022-12-19T04:38:17.168Z,22.10
2022-12-19T04:40:44.604Z,23.30
2022-12-19T04:43:11.996Z,24.00
2022-12-19T04:45:41.577Z,25.80
2022-12-19T04:48:09.282Z,28.10
2022-12-19T04:50:36.400Z,28.10
2022-12-19T04:53:04.625Z,26.80
2022-12-19T04:55:32.178Z,28.80
2022-12-19T04:58:05.798Z,29.30
2022-12-19T05:00:34.057Z,29.30
2022-12-19T05:03:02.019Z,30.80
2022-12-19T05:05:29.583Z,30.70
2022-12-19T05:07:56.950Z,27.60
2022-12-19T05:10:24.689Z,32.50
2022-12-19T05:12:54.395Z,31.10
2022-12-19T05:15:22.155Z,28.70
2022-12-19T05:17:49.585Z,30.40
2022-12-19T05:20:16.864Z,29.70
2022-12-19T05:22:44.419Z,30.30
2022-12-19T05:25:11.850Z,33.30
2022-12-19T05:27:39.394Z,38.40
2022-12-19T05:30:07.291Z,31.90
2022-12-19T05:32:34.345Z,34.90
2022-12-19T05:35:01.554Z,38.30
2022-12-19T05:37:29.221Z,38.80
2022-12-19T05:39:56.423Z,38.50
2022-12-19T05:42:25.835Z,37.10
2022-12-19T05:44:53.072Z,32.80
2022-12-19T05:47:20.684Z,33.30
2022-12-19T05:49:48.027Z,29.60
2022-12-19T05:52:15.971Z,31.00
2022-12-19T05:54:43.363Z,26.90
2022-12-19T05:57:10.987Z,29.20
2022-12-19T05:59:38.186Z,31.30
2022-12-19T06:02:05.869Z,31.00
2022-12-19T06:04:36.047Z,27.50
2022-12-19T06:07:04.979Z,29.30
2022-12-19T06:09:32.220Z,29.50
2022-12-19T06:11:59.521Z,27.80
2022-12-19T06:14:41.136Z,29.10
2022-12-19T06:17:22.850Z,28.90
2022-12-19T06:19:50.285Z,30.90
2022-12-19T06:22:17.721Z,27.90
2022-12-19T06:24:44.958Z,25.40
2022-12-19T06:27:12.070Z,29.20
2022-12-19T06:29:39.413Z,32.30
2022-12-19T06:32:06.681Z,31.40
2022-12-19T06:37:23.427Z,32.40
2022-12-19T06:39:50.908Z,36.40
2022-12-19T06:42:24.093Z,32.00
2022-12-19T06:44:56.441Z,29.70
2022-12-19T06:47:24.955Z,28.40
2022-12-19T06:49:53.064Z,29.80
2022-12-19T06:52:34.644Z,31.40
2022-12-19T06:55:02.242Z,33.20
2022-12-19T06:57:29.420Z,26.90
2022-12-19T06:59:57.563Z,29.30
2022-12-19T07:02:30.421Z,29.00
2022-12-19T07:05:02.443Z,30.60
2022-12-19T07:07:29.872Z,28.50
2022-12-19T07:10:11.802Z,28.80
2022-12-19T07:12:39.203Z,29.30
2022-12-19T07:15:06.905Z,29.80
2022-12-19T07:17:34.287Z,29.50
2022-12-19T07:20:01.891Z,31.00
2022-12-19T07:22:32.862Z,31.20
2022-12-19T07:25:02.176Z,32.50
2022-12-19T07:27:35.417Z,30.40
2022-12-19T07:30:05.546Z,27.70
2022-12-19T07:32:33.379Z,31.30
2022-12-19T07:35:00.915Z,29.30
2022-12-19T07:37:28.178Z,29.60
2022-12-19T07:39:55.438Z,31.50
2022-12-19T07:42:22.655Z,31.30
2022-12-19T07:44:50.781Z,32.20
2022-12-19T07:47:18.333Z,29.20
2022-12-19T07:49:45.390Z,33.00
2022-12-19T07:52:12.657Z,29.60
2022-12-19T07:54:54.319Z,29.80
2022-12-19T07:57:21.856Z,29.40
2022-12-19T08:00:04.621Z,27.20
2022-12-19T08:05:08.142Z,27.20
2022-12-19T08:07:35.483Z,29.80
2022-12-19T08:10:13.406Z,28.20
2022-12-19T08:13:15.274Z,26.10
2022-12-19T08:15:42.435Z,28.30
2022-12-19T08:18:09.521Z,30.30
2022-12-19T08:20:36.512Z,27.80
2022-12-19T08:23:04.107Z,30.90
2022-12-19T08:25:31.359Z,28.60
2022-12-19T08:27:58.773Z,31.20
2022-12-19T08:30:26.174Z,29.90
2022-12-19T08:32:54.067Z,28.10
2022-12-19T08:35:22.580Z,27.20
2022-12-19T08:37:49.895Z,29.30
2022-12-19T08:40:17.245Z,27.50
2022-12-19T08:42:45.244Z,31.10
2022-12-19T08:45:12.856Z,27.10
2022-12-19T08:47:40.063Z,27.80
2022-12-19T08:50:07.884Z,28.20
2022-12-19T08:52:35.347Z,31.40
2022-12-19T08:55:04.064Z,31.30
2022-12-19T08:57:30.646Z,31.70
2022-12-19T08:59:58.036Z,32.50
2022-12-19T09:02:26.254Z,29.90
2022-12-19T09:06:03.859Z,30.10
2022-12-19T09:07:41.256Z,40.50
2022-12-19T09:10:08.777Z,35.30
2022-12-19T09:12:36.177Z,27.80
2022-12-19T09:15:03.793Z,32.50
2022-12-19T09:17:30.941Z,31.40
2022-12-19T09:19:58.591Z,26.50
2022-12-19T09:22:29.339Z,30.40
2022-12-19T09:24:56.849Z,30.40
2022-12-19T09:27:24.404Z,30.20
2022-12-19T09:29:51.929Z,29.40
2022-12-19T09:32:19.325Z,29.20
2022-12-19T09:34:46.606Z,29.50
2022-12-19T09:37:17.197Z,33.70
2022-12-19T09:39:46.969Z,30.90
2022-12-19T09:42:29.004Z,31.90
2022-12-19T09:45:21.464Z,29.10
2022-12-19T09:48:01.655Z,29.70
2022-12-19T09:50:52.397Z,30.50
2022-12-19T09:53:45.003Z,27.90
2022-12-19T09:56:25.457Z,30.50
2022-12-19T09:59:04.772Z,29.90
2022-12-19T10:01:57.243Z,26.70
2022-12-19T10:04:27.214Z,28.70
2022-12-19T10:07:20.504Z,31.20
2022-12-19T10:12:33.195Z,31.10
2022-12-19T10:12:51.103Z,32.50
2022-12-19T10:15:25.414Z,32.40
2022-12-19T10:18:17.291Z,29.20
2022-12-19T10:21:02.575Z,30.30
2022-12-19T10:23:59.056Z,31.80
2022-12-19T10:26:45.956Z,28.70
2022-12-19T10:31:59.485Z,28.60
2022-12-19T10:34:33.519Z,29.50
2022-12-19T10:37:49.291Z,30.30
2022-12-19T10:40:43.560Z,29.80
2022-12-19T10:43:34.689Z,29.40
2022-12-19T10:46:16.828Z,30.50
2022-12-19T10:48:44.099Z,27.10
2022-12-19T10:51:18.915Z,28.20
2022-12-19T10:53:54.524Z,27.20
2022-12-19T10:56:28.253Z,28.30
2022-12-19T10:59:01.405Z,26.90
2022-12-19T11:01:44.491Z,28.10
2022-12-19T11:04:33.150Z,29.50
2022-12-19T11:07:00.606Z,28.60
2022-12-19T11:09:30.894Z,29.40
2022-12-19T11:16:38.395Z,29.30
2022-12-19T11:20:00.923Z,30.10
2022-12-19T11:27:03.827Z,32.50
2022-12-19T11:29:18.185Z,33.90
2022-12-19T11:29:38.155Z,31.00
2022-12-19T11:30:46.256Z,30.00
2022-12-19T11:32:45.054Z,28.60
2022-12-19T11:35:24.406Z,28.50
2022-12-19T11:37:59.899Z,30.70
2022-12-19T11:40:44.635Z,35.00
2022-12-19T11:43:46.509Z,33.20
2022-12-19T11:46:28.359Z,32.20
2022-12-19T11:49:05.534Z,44.40
2022-12-19T11:52:29.463Z,30.10
2022-12-19T11:55:25.976Z,31.20
2022-12-19T11:57:54.413Z,32.70
2022-12-19T12:00:24.148Z,33.30
2022-12-19T12:03:29.619Z,34.80
2022-12-19T12:05:58.147Z,31.50
2022-12-19T12:12:47.140Z,42.00
2022-12-19T12:16:58.668Z,26.50
2022-12-19T12:26:24.199Z,31.30
2022-12-19T12:31:12.950Z,34.20
2022-12-19T12:31:49.684Z,25.50
2022-12-19T12:31:51.157Z,27.50
2022-12-19T12:31:58.822Z,26.70
2022-12-19T12:35:51.086Z,27.90
2022-12-19T12:39:15.997Z,28.30
2022-12-19T12:42:04.187Z,30.10
2022-12-19T12:47:23.794Z,27.60
2022-12-19T12:53:10.858Z,30.80
2022-12-19T12:55:42.011Z,30.80
2022-12-19T12:58:54.408Z,31.00
2022-12-19T13:01:33.067Z,31.20
2022-12-19T13:04:21.123Z,29.50
2022-12-19T13:06:51.371Z,30.30
2022-12-19T13:09:29.185Z,30.00
2022-12-19T13:12:18.068Z,29.30
2022-12-19T13:14:50.263Z,28.20
2022-12-19T13:17:35.763Z,29.80
2022-12-19T13:20:03.167Z,29.60
2022-12-19T13:22:31.071Z,28.60
2022-12-19T13:25:00.422Z,28.80
2022-12-19T13:27:47.972Z,26.90
2022-12-19T13:30:17.766Z,30.40
2022-12-19T13:32:44.943Z,28.80
2022-12-19T13:36:12.101Z,31.80
2022-12-19T13:39:57.950Z,30.90
2022-12-19T13:41:47.030Z,32.10
2022-12-19T13:44:19.736Z,28.90
2022-12-19T13:46:47.637Z,30.00
2022-12-19T13:49:23.520Z,29.40
2022-12-19T13:52:06.690Z,31.70
2022-12-19T13:54:46.065Z,30.80
2022-12-19T13:57:25.216Z,29.50
2022-12-19T14:00:15.948Z,30.80
2022-12-19T14:02:54.096Z,33.40
2022-12-19T14:06:16.026Z,37.80
2022-12-19T14:08:27.277Z,33.50
2022-12-19T14:11:37.425Z,31.10
2022-12-19T14:14:27.526Z,29.40
2022-12-19T14:17:06.212Z,30.90
2022-12-19T14:19:40.072Z,29.60
2022-12-19T14:22:33.896Z,29.50
2022-12-19T14:25:50.241Z,28.00
2022-12-19T14:28:19.655Z,29.40
2022-12-19T14:33:44.776Z,26.30
2022-12-19T14:36:26.607Z,27.40
2022-12-19T14:39:22.761Z,27.40
2022-12-19T14:42:03.871Z,29.40
2022-12-19T14:52:34.174Z,27.10
2022-12-19T14:54:03.493Z,26.80
2022-12-19T14:54:18.515Z,28.60
2022-12-19T14:54:52.804Z,29.60
2022-12-19T14:59:03.202Z,29.00
2022-12-19T15:01:34.446Z,28.20
2022-12-19T15:04:50.296Z,28.20
2022-12-19T15:07:50.650Z,29.30
2022-12-19T15:11:09.052Z,27.90
2022-12-19T15:14:53.083Z,28.90
2022-12-19T15:16:34.237Z,28.90
2022-12-19T15:19:02.984Z,30.00
2022-12-19T15:21:31.064Z,29.00
2022-12-19T15:23:58.279Z,28.40
2022-12-19T15:26:34.663Z,29.10
2022-12-19T15:31:43.921Z,28.50
2022-12-19T15:34:35.059Z,27.60
2022-12-19T15:37:03.526Z,28.40
2022-12-19T15:39:31.133Z,30.80
2022-12-19T15:42:01.624Z,30.20
2022-12-19T15:44:37.283Z,33.20
2022-12-19T15:47:32.484Z,30.70
2022-12-19T15:52:48.244Z,30.70
2022-12-19T15:55:19.380Z,29.40
2022-12-19T15:57:51.797Z,36.70
2022-12-19T16:00:25.310Z,35.00
2022-12-19T16:03:23.165Z,30.90
2022-12-19T16:05:41.361Z,34.00
2022-12-19T16:26:01.883Z,27.80
2022-12-19T16:56:52.276Z,36.90
2022-12-19T16:59:25.983Z,33.00
2022-12-19T17:01:54.797Z,33.10
2022-12-19T17:04:25.496Z,33.00
2022-12-19T17:06:57.574Z,32.90
2022-12-19T17:09:29.624Z,32.10
2022-12-19T17:12:01.584Z,33.50
2022-12-19T17:14:32.399Z,39.50
2022-12-19T17:17:01.153Z,32.00
2022-12-19T17:19:36.587Z,31.00
2022-12-19T17:22:13.352Z,33.00
2022-12-19T17:24:42.260Z,33.20
2022-12-19T17:27:11.168Z,33.40
2022-12-19T17:29:39.896Z,33.90
2022-12-19T17:32:11.691Z,34.70
2022-12-19T17:34:44.473Z,33.50
2022-12-19T17:37:19.365Z,34.00
2022-12-19T17:39:50.657Z,34.30
2022-12-19T17:42:23.669Z,34.70
2022-12-19T17:44:52.393Z,33.20
2022-12-19T17:47:21.628Z,35.00
2022-12-19T17:49:51.718Z,36.10
2022-12-19T17:52:20.861Z,37.50
2022-12-19T17:54:49.862Z,35.90
2022-12-19T17:57:19.715Z,34.10
2022-12-19T18:00:02.576Z,35.70
2022-12-19T18:02:42.006Z,35.10
2022-12-19T18:05:27.688Z,37.20
2022-12-19T18:07:56.642Z,35.40
2022-12-19T18:10:31.384Z,37.00
2022-12-19T18:13:14.123Z,34.00
2022-12-19T18:15:59.583Z,34.50
2022-12-19T18:18:37.595Z,38.30
2022-12-19T18:21:14.803Z,36.80
2022-12-19T18:23:44.511Z,39.10
2022-12-19T18:26:26.740Z,36.80
2022-12-19T18:28:55.462Z,38.20
2022-12-19T18:31:27.587Z,37.90
2022-12-19T18:34:07.155Z,39.70
2022-12-19T18:36:42.846Z,37.60
2022-12-19T18:39:24.073Z,36.60
2022-12-19T18:41:53.544Z,35.70
2022-12-19T18:44:23.363Z,37.10
2022-12-19T18:47:07.068Z,41.10
2022-12-19T18:49:37.961Z,42.20
2022-12-19T18:52:11.765Z,38.20
2022-12-19T18:54:40.861Z,37.50
2022-12-19T18:57:09.830Z,39.80
2022-12-19T18:59:38.957Z,38.30
2022-12-19T19:02:26.947Z,39.20
2022-12-19T19:04:56.387Z,39.60
2022-12-19T19:07:24.998Z,39.40
2022-12-19T19:09:54.199Z,42.50
2022-12-19T19:12:41.779Z,36.20
2022-12-19T19:15:11.618Z,39.50
2022-12-19T19:17:42.587Z,40.60
2022-12-19T19:20:11.571Z,40.60
2022-12-19T19:22:40.212Z,42.40
2022-12-19T19:25:09.319Z,45.10
2022-12-19T19:27:38.544Z,40.60
2022-12-19T19:30:08.397Z,41.30
2022-12-19T19:32:40.217Z,41.90
2022-12-19T19:35:10.857Z,37.90
2022-12-19T19:37:39.766Z,39.10
2022-12-19T19:40:09.821Z,40.70
2022-12-19T19:42:38.671Z,37.10
2022-12-19T19:45:08.168Z,38.90
2022-12-19T19:47:37.841Z,40.80
2022-12-19T19:50:07.893Z,40.50
2022-12-19T19:52:40.784Z,39.00
2022-12-19T19:55:10.336Z,40.30
2022-12-19T19:57:39.694Z,38.70
2022-12-19T20:00:10.049Z,40.40
2022-12-19T20:02:41.933Z,41.60
2022-12-19T20:05:11.872Z,43.60
2022-12-19T20:07:40.548Z,40.20
2022-12-19T20:10:09.838Z,40.40
2022-12-19T20:12:38.514Z,41.80
2022-12-19T20:15:09.175Z,42.10
2022-12-19T20:17:37.807Z,42.50
2022-12-19T20:20:08.022Z,43.90
2022-12-19T20:22:36.737Z,41.80
2022-12-19T20:25:06.066Z,46.00
2022-12-19T20:27:35.954Z,48.10
2022-12-19T20:30:05.175Z,43.20
2022-12-19T20:32:34.109Z,46.00
2022-12-19T20:35:02.853Z,44.40
2022-12-19T20:37:33.184Z,43.70
2022-12-19T20:40:02.076Z,45.80
2022-12-19T20:42:30.580Z,45.10
2022-12-19T20:45:13.050Z,50.80
2022-12-19T20:47:41.734Z,45.10
2022-12-19T20:50:13.160Z,48.20
2022-12-19T20:52:43.099Z,52.20
2022-12-19T20:55:11.750Z,47.40
2022-12-19T20:57:40.190Z,47.30
2022-12-19T21:00:10.906Z,51.90
2022-12-19T21:03:17.313Z,49.20
2022-12-19T21:05:29.008Z,50.80
2022-12-19T21:07:57.842Z,47.00
2022-12-19T21:10:26.431Z,51.50
2022-12-19T21:12:54.989Z,47.90
2022-12-19T21:15:37.671Z,48.40
2022-12-19T21:18:06.415Z,49.60
2022-12-19T21:20:49.047Z,48.80
2022-12-19T21:23:18.880Z,46.90
2022-12-19T21:25:47.743Z,46.90
2022-12-19T21:28:16.726Z,47.40
2022-12-19T21:30:45.835Z,50.80
2022-12-19T21:33:14.522Z,45.90
2022-12-19T21:35:43.395Z,47.40
2022-12-19T21:38:25.792Z,49.80
2022-12-19T21:40:54.336Z,47.90
2022-12-19T21:43:22.976Z,48.90
2022-12-19T21:46:11.452Z,54.10
2022-12-19T21:48:42.752Z,46.20
2022-12-19T21:51:12.754Z,46.80
2022-12-19T21:53:41.896Z,46.40
2022-12-19T21:56:39.953Z,46.30
2022-12-19T21:59:22.261Z,46.20
2022-12-19T22:01:51.752Z,49.70
2022-12-19T22:04:23.902Z,45.70
2022-12-19T22:06:53.603Z,48.60
2022-12-19T22:09:23.519Z,49.80
2022-12-19T22:12:06.424Z,44.90
2022-12-19T22:14:35.629Z,46.70
2022-12-19T22:17:06.657Z,49.40
2022-12-19T22:19:35.808Z,48.80
2022-12-19T22:22:18.036Z,46.70
2022-12-19T22:24:47.389Z,47.10
2022-12-19T22:27:29.721Z,43.90
2022-12-19T22:29:58.418Z,47.10
2022-12-19T22:32:27.499Z,48.00
2022-12-19T22:35:10.266Z,41.80
2022-12-19T22:37:52.683Z,44.60
2022-12-19T22:40:35.426Z,46.50
2022-12-19T22:43:04.229Z,47.30
2022-12-19T22:45:47.075Z,43.80
2022-12-19T22:48:29.420Z,42.30
2022-12-19T22:50:58.183Z,40.20
2022-12-19T22:53:27.090Z,43.50
2022-12-19T22:55:56.399Z,37.90
2022-12-19T22:58:41.170Z,43.70
2022-12-19T23:01:30.064Z,35.70
2022-12-19T23:04:01.081Z,36.30
2022-12-19T23:06:32.312Z,39.00
2022-12-19T23:09:02.120Z,42.70
2022-12-19T23:11:34.614Z,37.50
2022-12-19T23:14:06.751Z,36.60
2022-12-19T23:16:35.860Z,30.60
2022-12-19T23:19:05.457Z,29.40
2022-12-19T23:21:34.773Z,29.90
2022-12-19T23:24:04.173Z,27.40
2022-12-19T23:26:46.780Z,26.80
2022-12-19T23:29:16.169Z,24.90
2022-12-19T23:31:47.249Z,26.00
2022-12-19T23:34:17.571Z,25.40
2022-12-19T23:46:47.435Z,25.00
2022-12-19T23:49:30.352Z,25.40
2022-12-19T23:52:13.240Z,30.80
2022-12-19T23:54:42.504Z,28.10
2022-12-19T23:57:25.188Z,27.80
